createdAt,value
2022-12-01T00:00:10.226Z,101906.75
2022-12-01T00:02:36.806Z,101915.38
2022-12-01T00:05:03.594Z,101911.36
2022-12-01T00:07:30.168Z,101910.71
2022-12-01T00:10:15.436Z,101908.19
2022-12-01T00:12:43.631Z,101907.94
2022-12-01T00:15:11.456Z,101907.71
2022-12-01T00:17:38.815Z,101904.55
2022-12-01T00:20:06.843Z,101907.33
2022-12-01T00:22:33.341Z,101910.54
2022-12-01T00:24:59.825Z,101913.32
2022-12-01T00:27:26.199Z,101913.14
2022-12-01T00:29:52.575Z,101912.40
2022-12-01T00:32:19.156Z,101913.05
2022-12-01T00:34:45.582Z,101911.65
2022-12-01T00:37:11.993Z,101906.70
2022-12-01T00:39:38.393Z,101905.84
2022-12-01T00:42:10.048Z,101909.46
2022-12-01T00:44:39.660Z,101910.95
2022-12-01T00:47:06.190Z,101910.89
2022-12-01T00:49:32.678Z,101913.48
2022-12-01T00:51:59.241Z,101914.02
2022-12-01T00:54:25.661Z,101915.18
2022-12-01T00:56:52.177Z,101915.77
2022-12-01T00:59:18.877Z,101914.85
2022-12-01T01:01:45.345Z,101916.91
2022-12-01T01:04:12.262Z,101917.39
2022-12-01T01:06:38.754Z,101918.63
2022-12-01T01:09:05.231Z,101918.55
2022-12-01T01:11:31.659Z,101915.98
2022-12-01T01:13:59.502Z,101921.85
2022-12-01T01:16:26.719Z,101921.42
2022-12-01T01:18:53.557Z,101923.32
2022-12-01T01:21:21.744Z,101922.23
2022-12-01T01:23:49.883Z,101925.23
2022-12-01T01:26:23.355Z,101927.56
2022-12-01T01:28:51.385Z,101927.14
2022-12-01T01:31:23.530Z,101928.25
2022-12-01T01:33:50.296Z,101932.02
2022-12-01T01:36:18.225Z,101932.30
2022-12-01T01:38:45.009Z,101931.19
2022-12-01T01:41:12.012Z,101930.11
2022-12-01T01:43:43.095Z,101926.98
2022-12-01T01:46:19.272Z,101930.17
2022-12-01T01:48:53.393Z,101932.80
2022-12-01T01:51:25.621Z,101934.66
2022-12-01T01:53:56.538Z,101936.44
2022-12-01T01:56:23.687Z,101934.42
2022-12-01T01:58:51.517Z,101935.65
2022-12-01T02:01:18.184Z,101938.02
2022-12-01T02:03:46.108Z,101933.41
2022-12-01T02:06:13.711Z,101935.67
2022-12-01T02:08:40.177Z,101933.38
2022-12-01T02:11:48.251Z,101936.36
2022-12-01T02:14:41.056Z,101937.98
2022-12-01T02:17:24.629Z,101935.52
2022-12-01T02:20:06.364Z,101939.48
2022-12-01T02:23:05.270Z,101939.13
2022-12-01T02:25:59.226Z,101940.80
2022-12-01T02:28:54.714Z,101941.29
2022-12-01T02:32:15.328Z,101946.19
2022-12-01T02:34:44.626Z,101942.20
2022-12-01T02:37:29.427Z,101940.26
2022-12-01T02:40:14.029Z,101941.86
2022-12-01T02:42:54.507Z,101946.59
2022-12-01T02:45:32.042Z,101946.86
2022-12-01T02:48:02.908Z,101947.09
2022-12-01T02:50:32.528Z,101943.13
2022-12-01T02:53:01.334Z,101945.38
2022-12-01T02:55:27.808Z,101951.80
2022-12-01T02:57:54.241Z,101951.40
2022-12-01T03:00:20.695Z,101951.30
2022-12-01T03:03:31.110Z,101953.53
2022-12-01T03:06:24.008Z,101952.19
2022-12-01T03:09:08.663Z,101956.09
2022-12-01T03:11:51.593Z,101952.29
2022-12-01T03:14:33.566Z,101952.83
2022-12-01T03:17:07.472Z,101954.58
2022-12-01T03:19:49.685Z,101953.27
2022-12-01T03:22:42.705Z,101953.33
2022-12-01T03:25:12.080Z,101953.27
2022-12-01T03:28:00.689Z,101958.96
2022-12-01T03:30:33.586Z,101958.50
2022-12-01T03:33:14.025Z,101961.47
2022-12-01T03:35:50.503Z,101957.63
2022-12-01T03:38:28.329Z,101959.58
2022-12-01T03:41:07.478Z,101963.04
2022-12-01T03:43:38.658Z,101966.34
2022-12-01T03:46:24.190Z,101964.27
2022-12-01T03:48:54.238Z,101962.80
2022-12-01T03:51:36.783Z,101965.46
2022-12-01T03:54:37.728Z,101964.59
2022-12-01T03:57:08.427Z,101963.73
2022-12-01T03:59:37.033Z,101959.00
2022-12-01T04:02:05.428Z,101962.95
2022-12-01T04:04:31.921Z,101964.30
2022-12-01T04:06:58.318Z,101959.90
2022-12-01T04:09:24.732Z,101961.31
2022-12-01T04:12:09.980Z,101962.67
2022-12-01T04:14:36.438Z,101963.58
2022-12-01T04:17:02.902Z,101961.84
2022-12-01T04:19:29.351Z,101963.31
2022-12-01T04:21:55.802Z,101964.69
2022-12-01T04:24:22.327Z,101966.26
2022-12-01T04:26:48.718Z,101966.39
2022-12-01T04:29:15.167Z,101968.94
2022-12-01T04:31:41.784Z,101973.91
2022-12-01T04:34:10.223Z,101972.64
2022-12-01T04:36:36.682Z,101973.76
2022-12-01T04:39:04.140Z,101971.76
2022-12-01T04:41:30.704Z,101975.23
2022-12-01T04:43:57.235Z,101969.56
2022-12-01T04:46:24.727Z,101970.39
2022-12-01T04:48:51.920Z,101968.52
2022-12-01T04:51:18.491Z,101973.11
2022-12-01T04:53:44.953Z,101967.58
2022-12-01T04:56:11.405Z,101971.68
2022-12-01T04:58:38.367Z,101968.53
2022-12-01T05:01:10.899Z,101967.77
2022-12-01T05:03:39.296Z,101971.63
2022-12-01T05:06:15.258Z,101972.31
2022-12-01T05:08:43.297Z,101977.71
2022-12-01T05:11:12.325Z,101977.95
2022-12-01T05:13:40.924Z,101980.34
2022-12-01T05:16:09.063Z,101983.52
2022-12-01T05:18:35.959Z,101985.56
2022-12-01T05:21:04.271Z,101988.19
2022-12-01T05:23:33.044Z,101988.98
2022-12-01T05:26:00.266Z,101994.17
2022-12-01T05:28:27.494Z,101993.48
2022-12-01T05:30:54.502Z,101998.50
2022-12-01T05:33:22.700Z,101994.14
2022-12-01T05:35:50.281Z,102002.40
2022-12-01T05:38:17.767Z,102002.98
2022-12-01T05:40:53.605Z,102008.73
2022-12-01T05:43:25.423Z,102006.47
2022-12-01T05:45:55.776Z,102007.31
2022-12-01T05:48:22.332Z,102009.59
2022-12-01T05:50:48.709Z,102008.09
2022-12-01T05:53:15.631Z,102009.92
2022-12-01T05:55:42.773Z,102010.92
2022-12-01T05:58:09.742Z,102008.92
2022-12-01T06:00:45.046Z,102014.82
2022-12-01T06:03:12.433Z,102011.07
2022-12-01T06:05:38.985Z,102014.92
2022-12-01T06:08:05.524Z,102019.91
2022-12-01T06:10:31.930Z,102022.20
2022-12-01T06:12:58.338Z,102025.83
2022-12-01T06:15:24.806Z,102028.58
2022-12-01T06:17:51.249Z,102031.25
2022-12-01T06:20:17.733Z,102032.52
2022-12-01T06:22:44.148Z,102033.92
2022-12-01T06:25:10.922Z,102032.03
2022-12-01T06:27:37.361Z,102031.05
2022-12-01T06:30:05.038Z,102034.91
2022-12-01T06:32:31.462Z,102036.59
2022-12-01T06:34:57.834Z,102041.59
2022-12-01T06:37:24.275Z,102041.11
2022-12-01T06:39:50.943Z,102041.23
2022-12-01T06:42:17.667Z,102038.15
2022-12-01T06:44:44.177Z,102038.48
2022-12-01T06:47:10.549Z,102039.77
2022-12-01T06:49:37.924Z,102046.34
2022-12-01T06:52:05.136Z,102050.84
2022-12-01T06:54:31.657Z,102054.83
2022-12-01T06:56:58.577Z,102053.05
2022-12-01T06:59:28.253Z,102054.61
2022-12-01T07:01:56.331Z,102052.86
2022-12-01T07:04:22.806Z,102053.14
2022-12-01T07:06:49.141Z,102052.42
2022-12-01T07:09:15.549Z,102059.42
2022-12-01T07:11:42.128Z,102057.44
2022-12-01T07:14:19.896Z,102058.77
2022-12-01T07:16:46.316Z,102053.73
2022-12-01T07:19:12.774Z,102051.88
2022-12-01T07:21:39.171Z,102054.98
2022-12-01T07:24:06.014Z,102053.54
2022-12-01T07:26:32.488Z,102055.88
2022-12-01T07:28:58.871Z,102055.59
2022-12-01T07:31:25.281Z,102053.75
2022-12-01T07:33:52.520Z,102056.85
2022-12-01T07:36:18.933Z,102055.66
2022-12-01T07:38:45.349Z,102059.50
2022-12-01T07:41:14.164Z,102062.20
2022-12-01T07:43:41.214Z,102067.42
2022-12-01T07:46:23.228Z,102064.48
2022-12-01T07:48:51.469Z,102063.81
2022-12-01T07:51:18.366Z,102068.03
2022-12-01T07:53:46.825Z,102075.30
2022-12-01T07:56:13.618Z,102072.54
2022-12-01T07:58:40.648Z,102075.73
2022-12-01T08:01:12.446Z,102079.27
2022-12-01T08:03:39.500Z,102081.11
2022-12-01T08:06:07.491Z,102081.35
2022-12-01T08:08:36.393Z,102077.91
2022-12-01T08:11:06.046Z,102081.25
2022-12-01T08:13:32.779Z,102083.66
2022-12-01T08:15:59.220Z,102088.35
2022-12-01T08:18:25.669Z,102090.48
2022-12-01T08:20:57.976Z,102093.75
2022-12-01T08:23:24.823Z,102094.65
2022-12-01T08:25:52.554Z,102100.70
2022-12-01T08:28:20.008Z,102103.20
2022-12-01T08:30:47.000Z,102100.80
2022-12-01T08:33:13.427Z,102103.71
2022-12-01T08:35:39.905Z,102106.24
2022-12-01T08:38:06.286Z,102107.17
2022-12-01T08:40:32.641Z,102108.25
2022-12-01T08:42:59.109Z,102115.25
2022-12-01T08:45:25.494Z,102112.58
2022-12-01T08:47:53.776Z,102115.86
2022-12-01T08:50:20.199Z,102118.52
2022-12-01T08:52:46.672Z,102117.76
2022-12-01T08:55:13.133Z,102118.40
2022-12-01T08:57:39.494Z,102117.82
2022-12-01T09:00:08.770Z,102117.49
2022-12-01T09:02:35.229Z,102121.68
2022-12-01T09:05:01.815Z,102119.91
2022-12-01T09:07:28.305Z,102122.79
2022-12-01T09:09:54.763Z,102121.85
2022-12-01T09:12:21.211Z,102126.84
2022-12-01T09:14:49.534Z,102128.97
2022-12-01T09:17:17.263Z,102133.29
2022-12-01T09:19:44.337Z,102134.52
2022-12-01T09:22:11.283Z,102131.43
2022-12-01T09:24:38.255Z,102134.81
2022-12-01T09:27:04.995Z,102135.05
2022-12-01T09:29:32.284Z,102139.21
2022-12-01T09:32:00.195Z,102134.80
2022-12-01T09:34:27.240Z,102132.08
2022-12-01T09:36:58.598Z,102128.49
2022-12-01T09:39:25.710Z,102130.08
2022-12-01T09:42:13.754Z,102124.52
2022-12-01T09:44:53.590Z,102114.29
2022-12-01T09:47:32.003Z,102106.42
2022-12-01T09:50:13.262Z,102108.86
2022-12-01T09:52:51.261Z,102112.30
2022-12-01T09:55:19.942Z,102110.92
2022-12-01T09:57:52.164Z,102109.25
2022-12-01T10:00:21.723Z,102106.79
2022-12-01T10:03:00.892Z,102108.04
2022-12-01T10:05:46.891Z,102110.67
2022-12-01T10:08:29.365Z,102105.89
2022-12-01T10:11:04.793Z,102106.77
2022-12-01T10:13:33.739Z,102104.30
2022-12-01T10:16:42.735Z,102103.19
2022-12-01T10:19:19.713Z,102104.21
2022-12-01T10:22:09.212Z,102103.47
2022-12-01T10:24:50.787Z,102096.00
2022-12-01T10:27:55.680Z,102094.63
2022-12-01T10:30:24.002Z,102094.08
2022-12-01T10:33:00.983Z,102094.59
2022-12-01T10:35:32.143Z,102089.17
2022-12-01T10:38:06.782Z,102093.85
2022-12-01T10:40:36.078Z,102092.85
2022-12-01T10:43:03.138Z,102092.48
2022-12-01T10:45:35.564Z,102089.80
2022-12-01T10:48:17.507Z,102089.15
2022-12-01T10:50:49.269Z,102090.15
2022-12-01T10:53:34.325Z,102087.65
2022-12-01T10:56:03.867Z,102086.80
2022-12-01T10:58:33.550Z,102086.30
2022-12-01T11:01:05.930Z,102084.76
2022-12-01T11:03:35.019Z,102085.84
2022-12-01T11:06:03.719Z,102083.45
2022-12-01T11:08:40.696Z,102082.69
2022-12-01T11:11:25.490Z,102083.15
2022-12-01T11:13:52.061Z,102080.81
2022-12-01T11:16:40.632Z,102075.60
2022-12-01T11:19:32.614Z,102074.73
2022-12-01T11:22:18.677Z,102069.48
2022-12-01T11:24:57.104Z,102069.84
2022-12-01T11:27:26.301Z,102063.27
2022-12-01T11:29:57.229Z,102070.06
2022-12-01T11:32:26.944Z,102070.73
2022-12-01T11:34:57.881Z,102067.08
2022-12-01T11:37:29.567Z,102070.17
2022-12-01T11:40:07.139Z,102073.75
2022-12-01T11:42:34.464Z,102073.85
2022-12-01T11:45:08.567Z,102071.86
2022-12-01T11:47:34.962Z,102073.75
2022-12-01T11:50:22.587Z,102070.30
2022-12-01T11:52:48.976Z,102068.33
2022-12-01T11:55:15.427Z,102069.98
2022-12-01T11:57:44.890Z,102071.61
2022-12-01T12:00:21.298Z,102070.16
2022-12-01T12:03:06.695Z,102065.41
2022-12-01T12:06:38.506Z,102062.10
2022-12-01T12:09:18.060Z,102066.17
2022-12-01T12:11:51.412Z,102061.20
2022-12-01T12:14:36.725Z,102061.05
2022-12-01T12:17:27.673Z,102057.91
2022-12-01T12:20:26.173Z,102057.40
2022-12-01T12:23:49.744Z,102054.33
2022-12-01T12:26:22.959Z,102057.67
2022-12-01T12:28:52.199Z,102057.60
2022-12-01T12:31:18.580Z,102056.02
2022-12-01T12:34:02.486Z,102055.42
2022-12-01T12:36:31.843Z,102054.03
2022-12-01T12:39:26.655Z,102052.04
2022-12-01T12:41:56.024Z,102050.56
2022-12-01T12:44:37.304Z,102045.30
2022-12-01T12:47:13.868Z,102040.06
2022-12-01T12:50:12.402Z,102041.30
2022-12-01T12:52:46.905Z,102049.52
2022-12-01T12:55:19.115Z,102049.64
2022-12-01T12:57:51.663Z,102043.39
2022-12-01T13:00:21.412Z,102045.09
2022-12-01T13:03:30.652Z,102048.27
2022-12-01T13:06:11.270Z,102049.43
2022-12-01T13:08:52.232Z,102047.10
2022-12-01T13:11:24.206Z,102041.36
2022-12-01T13:14:07.860Z,102043.56
2022-12-01T13:16:41.694Z,102041.05
2022-12-01T13:19:32.251Z,102036.89
2022-12-01T13:21:59.873Z,102030.14
2022-12-01T13:24:30.451Z,102029.65
2022-12-01T13:27:13.111Z,102026.98
2022-12-01T13:29:46.640Z,102027.81
2022-12-01T13:32:35.623Z,102030.95
2022-12-01T13:35:06.437Z,102027.35
2022-12-01T13:37:35.798Z,102027.60
2022-12-01T13:40:25.376Z,102030.52
2022-12-01T13:42:57.106Z,102027.94
2022-12-01T13:45:23.870Z,102029.98
2022-12-01T13:47:51.826Z,102029.56
2022-12-01T13:50:43.840Z,102030.41
2022-12-01T13:53:23.718Z,102031.44
2022-12-01T13:56:03.704Z,102030.92
2022-12-01T13:58:33.143Z,102031.98
2022-12-01T14:01:45.463Z,102031.80
2022-12-01T14:04:11.854Z,102035.36
2022-12-01T14:06:49.407Z,102037.38
2022-12-01T14:09:32.109Z,102038.55
2022-12-01T14:12:05.494Z,102038.10
2022-12-01T14:14:38.825Z,102037.02
2022-12-01T14:17:05.883Z,102034.20
2022-12-01T14:19:52.588Z,102037.18
2022-12-01T14:22:33.084Z,102038.63
2022-12-01T14:25:00.459Z,102044.31
2022-12-01T14:27:41.976Z,102041.87
2022-12-01T14:30:39.883Z,102043.46
2022-12-01T14:33:37.402Z,102044.60
2022-12-01T14:36:13.763Z,102047.64
2022-12-01T14:38:40.640Z,102052.09
2022-12-01T14:41:15.939Z,102058.45
2022-12-01T14:44:05.471Z,102058.11
2022-12-01T14:46:45.667Z,102054.44
2022-12-01T14:49:17.858Z,102052.33
2022-12-01T14:51:48.399Z,102056.67
2022-12-01T14:54:20.606Z,102058.02
2022-12-01T14:56:51.270Z,102056.64
2022-12-01T14:59:25.934Z,102057.36
2022-12-01T15:01:55.832Z,102057.36
2022-12-01T15:04:22.321Z,102058.13
2022-12-01T15:06:54.806Z,102056.34
2022-12-01T15:09:33.567Z,102054.02
2022-12-01T15:12:06.894Z,102053.61
2022-12-01T15:14:36.710Z,102052.98
2022-12-01T15:17:05.756Z,102048.38
2022-12-01T15:19:34.024Z,102045.65
2022-12-01T15:22:05.727Z,102042.33
2022-12-01T15:24:33.974Z,102041.69
2022-12-01T15:27:03.807Z,102039.50
2022-12-01T15:29:46.787Z,102035.20
2022-12-01T15:32:18.382Z,102038.19
2022-12-01T15:34:47.221Z,102034.23
2022-12-01T15:37:17.522Z,102028.70
2022-12-01T15:39:47.082Z,102029.96
2022-12-01T15:42:26.175Z,102033.34
2022-12-01T15:45:00.448Z,102036.20
2022-12-01T15:47:36.249Z,102035.71
2022-12-01T15:50:04.857Z,102032.51
2022-12-01T15:52:32.556Z,102035.51
2022-12-01T15:55:03.914Z,102033.75
2022-12-01T15:57:30.403Z,102034.61
2022-12-01T15:59:57.647Z,102035.73
2022-12-01T16:02:31.765Z,102038.20
2022-12-01T16:05:06.170Z,102037.54
2022-12-01T16:08:11.418Z,102040.45
2022-12-01T16:10:31.313Z,102042.48
2022-12-01T16:13:36.028Z,102044.39
2022-12-01T16:16:23.110Z,102043.19
2022-12-01T16:18:59.259Z,102040.87
2022-12-01T16:21:26.837Z,102044.18
2022-12-01T16:24:01.785Z,102042.58
2022-12-01T16:26:29.574Z,102038.75
2022-12-01T16:28:56.806Z,102039.15
2022-12-01T16:31:26.560Z,102041.59
2022-12-01T16:34:06.632Z,102038.30
2022-12-01T16:36:40.531Z,102040.54
2022-12-01T16:39:10.331Z,102035.11
2022-12-01T16:41:43.638Z,102042.52
2022-12-01T16:44:28.045Z,102042.58
2022-12-01T16:46:55.933Z,102045.16
2022-12-01T16:49:22.671Z,102047.40
2022-12-01T16:51:55.856Z,102045.45
2022-12-01T16:54:23.165Z,102045.62
2022-12-01T16:56:49.645Z,102045.04
2022-12-01T16:59:16.073Z,102043.08
2022-12-01T17:01:42.530Z,102043.32
2022-12-01T17:04:08.929Z,102042.98
2022-12-01T17:06:36.122Z,102045.14
2022-12-01T17:09:02.540Z,102047.45
2022-12-01T17:11:28.923Z,102051.25
2022-12-01T17:13:55.308Z,102047.95
2022-12-01T17:16:21.782Z,102042.73
2022-12-01T17:18:48.174Z,102040.29
2022-12-01T17:21:14.734Z,102043.53
2022-12-01T17:23:41.220Z,102041.50
2022-12-01T17:26:14.083Z,102040.15
2022-12-01T17:28:41.123Z,102040.48
2022-12-01T17:31:08.524Z,102039.67
2022-12-01T17:33:36.190Z,102041.39
2022-12-01T17:36:05.510Z,102044.80
2022-12-01T17:38:35.275Z,102040.70
2022-12-01T17:41:11.268Z,102044.27
2022-12-01T17:43:38.953Z,102045.67
2022-12-01T17:46:07.321Z,102048.56
2022-12-01T17:48:38.946Z,102050.56
2022-12-01T17:51:06.416Z,102046.85
2022-12-01T17:53:33.342Z,102050.54
2022-12-01T17:55:59.821Z,102053.35
2022-12-01T17:58:26.845Z,102056.33
2022-12-01T18:00:54.295Z,102055.53
2022-12-01T18:03:21.372Z,102051.70
2022-12-01T18:05:56.078Z,102054.15
2022-12-01T18:08:23.362Z,102055.36
2022-12-01T18:10:49.806Z,102053.35
2022-12-01T18:13:16.229Z,102058.91
2022-12-01T18:15:42.665Z,102055.19
2022-12-01T18:18:09.150Z,102054.64
2022-12-01T18:20:40.994Z,102053.84
2022-12-01T18:23:07.377Z,102053.05
2022-12-01T18:25:38.112Z,102052.96
2022-12-01T18:28:05.074Z,102049.18
2022-12-01T18:30:32.982Z,102050.27
2022-12-01T18:33:00.829Z,102053.05
2022-12-01T18:35:31.727Z,102054.14
2022-12-01T18:37:58.929Z,102054.33
2022-12-01T18:40:25.567Z,102057.83
2022-12-01T18:42:52.091Z,102059.44
2022-12-01T18:45:21.323Z,102061.88
2022-12-01T18:47:48.238Z,102062.52
2022-12-01T18:50:14.915Z,102060.77
2022-12-01T18:52:41.466Z,102057.93
2022-12-01T18:55:08.177Z,102054.16
2022-12-01T18:57:34.590Z,102052.91
2022-12-01T19:00:01.256Z,102054.10
2022-12-01T19:02:27.820Z,102051.34
2022-12-01T19:04:54.267Z,102049.85
2022-12-01T19:07:25.227Z,102053.99
2022-12-01T19:09:55.809Z,102054.30
2022-12-01T19:12:22.273Z,102048.19
2022-12-01T19:14:48.987Z,102044.10
2022-12-01T19:17:15.505Z,102047.89
2022-12-01T19:19:41.922Z,102045.40
2022-12-01T19:22:08.366Z,102046.46
2022-12-01T19:24:34.872Z,102048.67
2022-12-01T19:27:01.327Z,102046.58
2022-12-01T19:29:28.327Z,102041.85
2022-12-01T19:31:54.786Z,102047.16
2022-12-01T19:34:21.294Z,102054.14
2022-12-01T19:36:49.820Z,102049.04
2022-12-01T19:39:16.366Z,102051.20
2022-12-01T19:41:43.036Z,102055.28
2022-12-01T19:44:10.937Z,102053.95
2022-12-01T19:46:37.744Z,102052.95
2022-12-01T19:49:05.597Z,102052.29
2022-12-01T19:51:36.868Z,102052.35
2022-12-01T19:54:05.076Z,102053.38
2022-12-01T19:56:32.157Z,102052.47
2022-12-01T19:58:59.345Z,102051.33
2022-12-01T20:01:26.732Z,102053.20
2022-12-01T20:03:54.621Z,102049.27
2022-12-01T20:06:27.450Z,102050.89
2022-12-01T20:08:56.366Z,102050.20
2022-12-01T20:11:23.910Z,102052.80
2022-12-01T20:13:51.433Z,102054.95
2022-12-01T20:16:20.670Z,102056.26
2022-12-01T20:18:48.041Z,102054.09
2022-12-01T20:21:17.686Z,102055.86
2022-12-01T20:23:46.201Z,102058.28
2022-12-01T20:26:13.943Z,102052.73
2022-12-01T20:28:41.468Z,102054.73
2022-12-01T20:31:11.991Z,102051.78
2022-12-01T20:33:39.216Z,102054.44
2022-12-01T20:36:06.739Z,102056.50
2022-12-01T20:38:33.302Z,102055.79
2022-12-01T20:41:01.269Z,102056.19
2022-12-01T20:43:33.219Z,102056.61
2022-12-01T20:46:00.256Z,102057.57
2022-12-01T20:48:27.155Z,102055.70
2022-12-01T20:50:53.907Z,102056.11
2022-12-01T20:53:20.400Z,102049.89
2022-12-01T20:55:46.814Z,102050.32
2022-12-01T20:58:13.620Z,102047.47
2022-12-01T21:00:44.282Z,102048.30
2022-12-01T21:03:11.733Z,102047.98
2022-12-01T21:05:39.644Z,102051.02
2022-12-01T21:08:08.529Z,102049.90
2022-12-01T21:10:37.859Z,102048.56
2022-12-01T21:13:39.360Z,102047.20
2022-12-01T21:16:16.406Z,102042.88
2022-12-01T21:18:53.601Z,102041.14
2022-12-01T21:21:24.532Z,102038.39
2022-12-01T21:24:11.539Z,102036.88
2022-12-01T21:26:46.311Z,102032.16
2022-12-01T21:29:21.929Z,102031.74
2022-12-01T21:31:52.374Z,102034.55
2022-12-01T21:34:21.783Z,102032.55
2022-12-01T21:36:49.965Z,102029.52
2022-12-01T21:39:20.125Z,102027.38
2022-12-01T21:41:48.966Z,102027.09
2022-12-01T21:44:18.423Z,102025.73
2022-12-01T21:46:45.729Z,102028.16
2022-12-01T21:49:21.090Z,102028.02
2022-12-01T21:51:50.670Z,102027.17
2022-12-01T21:54:20.867Z,102028.32
2022-12-01T21:56:52.046Z,102024.50
2022-12-01T21:59:23.195Z,102021.80
2022-12-01T22:01:57.146Z,102021.64
2022-12-01T22:04:29.716Z,102024.08
2022-12-01T22:06:57.767Z,102020.72
2022-12-01T22:09:35.398Z,102021.42
2022-12-01T22:12:28.912Z,102019.36
2022-12-01T22:15:00.737Z,102017.07
2022-12-01T22:17:27.825Z,102018.28
2022-12-01T22:20:00.069Z,102020.91
2022-12-01T22:22:30.730Z,102016.86
2022-12-01T22:25:09.530Z,102016.59
2022-12-01T22:27:38.362Z,102018.69
2022-12-01T22:30:07.823Z,102016.47
2022-12-01T22:32:58.674Z,102018.99
2022-12-01T22:35:43.712Z,102013.25
2022-12-01T22:38:33.940Z,102013.13
2022-12-01T22:41:13.127Z,102005.45
2022-12-01T22:43:55.175Z,102005.98
2022-12-01T22:46:35.927Z,102003.77
2022-12-01T22:49:10.677Z,102003.86
2022-12-01T22:51:45.817Z,102000.81
2022-12-01T22:54:12.152Z,102004.45
2022-12-01T22:56:44.465Z,102002.39
2022-12-01T22:59:19.975Z,102003.79
2022-12-01T23:02:20.617Z,102001.59
2022-12-01T23:04:49.103Z,102002.08
2022-12-01T23:07:35.520Z,102002.19
2022-12-01T23:10:13.151Z,101999.77
2022-12-01T23:12:39.836Z,101997.69
2022-12-01T23:15:18.562Z,101997.33
2022-12-01T23:17:44.950Z,101993.81
2022-12-01T23:20:11.583Z,101993.99
2022-12-01T23:22:38.611Z,101996.69
2022-12-01T23:25:16.003Z,101992.90
2022-12-01T23:27:43.937Z,101989.40
2022-12-01T23:30:11.999Z,101988.73
2022-12-01T23:32:38.528Z,101984.92
2022-12-01T23:35:06.390Z,101984.48
2022-12-01T23:37:39.958Z,101982.48
2022-12-01T23:40:26.350Z,101979.91
2022-12-01T23:42:53.328Z,101981.04
2022-12-01T23:45:23.230Z,101980.19
2022-12-01T23:47:51.217Z,101978.41
2022-12-01T23:50:26.879Z,101979.24
2022-12-01T23:52:53.826Z,101977.04
2022-12-01T23:55:21.941Z,101974.79
2022-12-01T23:57:49.976Z,101973.51
